메인 페이지
METAR-TAF:

METAR-TAF

공항 :

그린우드, 미시시피, 미국

위도: 33-29-33N, 경도: 090-05-01W, 고도: 47m

현재 날씨관측

예보는 26분 전, 00:53시(UTC)에 발표되었습니다.
무풍
온도 29°C
습도 84%
기압 1011 hPa
시정: 16.1km
맑음

METAR: KGWO 220053Z AUTO 00000KT 10SM CLR 29/26 A2984 RMK AO2 SLP103 T02890261

시각: 20:19 (01:19 UTC)

예보

예보는 1 시간 57분 전, 23:22시(UTC)에 발표되었습니다.
예보 대상 시간: 22일 00시부터 22일 24시까지 (UTC)
북서6kt
시정: 10km
고도 15000ft 상공 구름 보통

TAF: KGWO 212322Z 2200/2224 31006KT P6SM SCT150

4,000개 이상의 공항 관측 자료 및 예보 (METAR 및 TAF 보고).

지도상에서 검색 가능한 기상관측소가 노란 점과 빨간 점으로 표시되어 있습니다.

기상관측소 명을 보려면 표시 위로 마우스를 이동하세요.

날씨 관측과 예보를 보려면 클릭하세요.

지도 변경 : 확대하려면 엑스 표시가 있는 녹색 버튼, 축소하려면 빼기 표시가 있는 녹색 버튼, 다음 페이지의 지도를 보려면 녹색 화살표를 클릭하세요.


METAR-TAF: